Аэропорт: Астана. Астана

ICAO: UACC

METAR:
2021-01-20 04:00:00
UACC 200400Z 13004MPS 100V160 9999 -SN SCT008 OVC040 M10/M12 Q1011 R22/85//60 TEMPO 2000 SHSN BKN020CB RMK QFE727/0969
METAR:
2021-01-19 23:00:00
TAF UACC 192300Z 2000/2024 15008MPS 9999 SCT011 BKN050 TXM06/2008Z TNM16/2001Z FM200400 20008MPS 2000 SHSN DRSN BKN011 BKN030CB TEMPO 2004/2012 24009G14MPS 0500 +SHSN BLSN BKN004 BKN015CB FM201200 24006MPS 9999 SCT011 BKN050 TEMPO 2012/2024 3100 BR FU SCT006